sensor_id;sensor_type;location;lat;lon;timestamp;temperature;humidity
610;DHT22;292;48.800;9.216;2022-08-21T00:01:49;20.50;69.80
610;DHT22;292;48.800;9.216;2022-08-21T00:04:18;20.50;69.90
610;DHT22;292;48.800;9.216;2022-08-21T00:06:45;20.40;69.90
610;DHT22;292;48.800;9.216;2022-08-21T00:09:12;20.40;69.90
610;DHT22;292;48.800;9.216;2022-08-21T00:11:40;20.40;69.90
610;DHT22;292;48.800;9.216;2022-08-21T00:14:09;20.40;69.90
610;DHT22;292;48.800;9.216;2022-08-21T00:16:36;20.40;69.60
610;DHT22;292;48.800;9.216;2022-08-21T00:19:04;20.40;69.50
610;DHT22;292;48.800;9.216;2022-08-21T00:21:34;20.30;69.50
610;DHT22;292;48.800;9.216;2022-08-21T00:24:02;20.30;69.60
610;DHT22;292;48.800;9.216;2022-08-21T00:26:30;20.30;69.50
610;DHT22;292;48.800;9.216;2022-08-21T00:28:57;20.30;69.60
610;DHT22;292;48.800;9.216;2022-08-21T00:31:24;20.30;69.60
610;DHT22;292;48.800;9.216;2022-08-21T00:33:51;20.20;69.80
610;DHT22;292;48.800;9.216;2022-08-21T00:36:18;20.20;70.00
610;DHT22;292;48.800;9.216;2022-08-21T00:38:47;20.20;70.20
610;DHT22;292;48.800;9.216;2022-08-21T00:41:14;20.10;70.20
610;DHT22;292;48.800;9.216;2022-08-21T00:43:41;20.10;70.30
610;DHT22;292;48.800;9.216;2022-08-21T00:46:08;20.10;70.60
610;DHT22;292;48.800;9.216;2022-08-21T00:48:35;20.00;70.80
610;DHT22;292;48.800;9.216;2022-08-21T00:51:07;20.00;70.90
610;DHT22;292;48.800;9.216;2022-08-21T00:53:36;19.90;71.10
610;DHT22;292;48.800;9.216;2022-08-21T00:56:07;19.90;71.10
610;DHT22;292;48.800;9.216;2022-08-21T00:58:36;19.80;71.10
610;DHT22;292;48.800;9.216;2022-08-21T01:01:05;19.80;71.10
610;DHT22;292;48.800;9.216;2022-08-21T01:03:33;19.80;71.10
610;DHT22;292;48.800;9.216;2022-08-21T01:06:01;19.70;71.20
610;DHT22;292;48.800;9.216;2022-08-21T01:08:30;19.70;71.30
610;DHT22;292;48.800;9.216;2022-08-21T01:10:58;19.70;71.30
610;DHT22;292;48.800;9.216;2022-08-21T01:13:29;19.60;71.30
610;DHT22;292;48.800;9.216;2022-08-21T01:15:59;19.60;71.50
610;DHT22;292;48.800;9.216;2022-08-21T01:18:28;19.50;71.30
610;DHT22;292;48.800;9.216;2022-08-21T01:21:02;19.50;71.30
610;DHT22;292;48.800;9.216;2022-08-21T01:23:29;19.50;71.50
610;DHT22;292;48.800;9.216;2022-08-21T01:25:57;19.50;71.50
610;DHT22;292;48.800;9.216;2022-08-21T01:28:24;19.50;71.50
610;DHT22;292;48.800;9.216;2022-08-21T01:30:52;19.50;71.60
610;DHT22;292;48.800;9.216;2022-08-21T01:33:20;19.40;71.50
610;DHT22;292;48.800;9.216;2022-08-21T01:35:48;19.50;71.50
610;DHT22;292;48.800;9.216;2022-08-21T01:38:17;19.40;71.50
610;DHT22;292;48.800;9.216;2022-08-21T01:40:44;19.40;71.50
610;DHT22;292;48.800;9.216;2022-08-21T01:43:11;19.40;71.50
610;DHT22;292;48.800;9.216;2022-08-21T01:45:38;19.40;71.30
610;DHT22;292;48.800;9.216;2022-08-21T01:48:05;19.40;71.30
610;DHT22;292;48.800;9.216;2022-08-21T01:50:32;19.40;71.20
610;DHT22;292;48.800;9.216;2022-08-21T01:52:59;19.40;71.10
610;DHT22;292;48.800;9.216;2022-08-21T01:55:28;19.30;71.10
610;DHT22;292;48.800;9.216;2022-08-21T01:57:56;19.30;71.20
610;DHT22;292;48.800;9.216;2022-08-21T02:00:24;19.30;71.30
610;DHT22;292;48.800;9.216;2022-08-21T02:02:51;19.30;71.50
610;DHT22;292;48.800;9.216;2022-08-21T02:05:19;19.20;71.60
610;DHT22;292;48.800;9.216;2022-08-21T02:07:49;19.20;71.80
610;DHT22;292;48.800;9.216;2022-08-21T02:10:24;19.10;71.90
610;DHT22;292;48.800;9.216;2022-08-21T02:12:53;19.10;72.10
610;DHT22;292;48.800;9.216;2022-08-21T02:15:21;19.00;72.20
610;DHT22;292;48.800;9.216;2022-08-21T02:17:50;19.00;72.50
610;DHT22;292;48.800;9.216;2022-08-21T02:20:20;19.00;72.60
610;DHT22;292;48.800;9.216;2022-08-21T02:22:47;19.00;72.80
610;DHT22;292;48.800;9.216;2022-08-21T02:25:15;19.00;72.80
610;DHT22;292;48.800;9.216;2022-08-21T02:27:44;18.90;72.90
610;DHT22;292;48.800;9.216;2022-08-21T02:30:17;18.90;72.90
610;DHT22;292;48.800;9.216;2022-08-21T02:32:44;18.90;72.90
610;DHT22;292;48.800;9.216;2022-08-21T02:35:11;18.90;73.10
610;DHT22;292;48.800;9.216;2022-08-21T02:37:47;18.80;73.20
610;DHT22;292;48.800;9.216;2022-08-21T02:40:16;18.80;73.20
610;DHT22;292;48.800;9.216;2022-08-21T02:42:43;18.80;73.50
610;DHT22;292;48.800;9.216;2022-08-21T02:45:12;18.80;73.50
610;DHT22;292;48.800;9.216;2022-08-21T02:47:47;18.80;73.90
610;DHT22;292;48.800;9.216;2022-08-21T02:50:19;18.70;74.10
610;DHT22;292;48.800;9.216;2022-08-21T02:52:46;18.70;74.20
610;DHT22;292;48.800;9.216;2022-08-21T02:55:13;18.70;74.20
610;DHT22;292;48.800;9.216;2022-08-21T02:57:40;18.70;74.40
610;DHT22;292;48.800;9.216;2022-08-21T03:00:08;18.60;74.40
610;DHT22;292;48.800;9.216;2022-08-21T03:02:36;18.60;74.50
610;DHT22;292;48.800;9.216;2022-08-21T03:05:06;18.60;74.70
610;DHT22;292;48.800;9.216;2022-08-21T03:07:35;18.60;74.70
610;DHT22;292;48.800;9.216;2022-08-21T03:10:03;18.60;74.50
610;DHT22;292;48.800;9.216;2022-08-21T03:12:31;18.60;74.50
610;DHT22;292;48.800;9.216;2022-08-21T03:14:58;18.50;74.70
610;DHT22;292;48.800;9.216;2022-08-21T03:17:25;18.50;74.80
610;DHT22;292;48.800;9.216;2022-08-21T03:19:52;18.40;75.00
610;DHT22;292;48.800;9.216;2022-08-21T03:22:20;18.40;75.00
610;DHT22;292;48.800;9.216;2022-08-21T03:24:47;18.40;75.10
610;DHT22;292;48.800;9.216;2022-08-21T03:27:15;18.30;75.20
610;DHT22;292;48.800;9.216;2022-08-21T03:29:42;18.30;75.50
610;DHT22;292;48.800;9.216;2022-08-21T03:32:09;18.20;75.70
610;DHT22;292;48.800;9.216;2022-08-21T03:34:36;18.20;76.00
610;DHT22;292;48.800;9.216;2022-08-21T03:37:05;18.20;76.10
610;DHT22;292;48.800;9.216;2022-08-21T03:39:34;18.20;76.20
610;DHT22;292;48.800;9.216;2022-08-21T03:42:01;18.10;76.40
610;DHT22;292;48.800;9.216;2022-08-21T03:44:28;18.10;76.50
610;DHT22;292;48.800;9.216;2022-08-21T03:46:55;18.10;76.50
610;DHT22;292;48.800;9.216;2022-08-21T03:49:23;18.10;76.70
610;DHT22;292;48.800;9.216;2022-08-21T03:51:50;18.10;76.70
610;DHT22;292;48.800;9.216;2022-08-21T03:54:17;18.10;76.80
610;DHT22;292;48.800;9.216;2022-08-21T03:56:48;18.00;76.80
610;DHT22;292;48.800;9.216;2022-08-21T03:59:15;18.10;76.80
610;DHT22;292;48.800;9.216;2022-08-21T04:01:51;18.00;76.80
610;DHT22;292;48.800;9.216;2022-08-21T04:04:18;18.00;77.10
610;DHT22;292;48.800;9.216;2022-08-21T04:06:45;17.90;77.30
610;DHT22;292;48.800;9.216;2022-08-21T04:09:13;17.90;77.50
610;DHT22;292;48.800;9.216;2022-08-21T04:11:39;17.80;77.70
610;DHT22;292;48.800;9.216;2022-08-21T04:14:08;17.80;77.80
610;DHT22;292;48.800;9.216;2022-08-21T04:16:36;17.80;77.80
610;DHT22;292;48.800;9.216;2022-08-21T04:19:03;17.80;78.00
610;DHT22;292;48.800;9.216;2022-08-21T04:21:30;17.80;78.00
610;DHT22;292;48.800;9.216;2022-08-21T04:23:58;17.80;78.00
610;DHT22;292;48.800;9.216;2022-08-21T04:26:25;17.80;78.10
610;DHT22;292;48.800;9.216;2022-08-21T04:28:52;17.80;78.30
610;DHT22;292;48.800;9.216;2022-08-21T04:31:22;17.70;78.30
610;DHT22;292;48.800;9.216;2022-08-21T04:33:50;17.70;78.30
610;DHT22;292;48.800;9.216;2022-08-21T04:36:17;17.70;78.40
610;DHT22;292;48.800;9.216;2022-08-21T04:38:44;17.80;78.60
610;DHT22;292;48.800;9.216;2022-08-21T04:41:11;17.70;78.60
610;DHT22;292;48.800;9.216;2022-08-21T04:43:38;17.70;78.60
610;DHT22;292;48.800;9.216;2022-08-21T04:46:05;17.70;78.70
610;DHT22;292;48.800;9.216;2022-08-21T04:48:34;17.70;78.70
610;DHT22;292;48.800;9.216;2022-08-21T04:51:07;17.70;78.70
610;DHT22;292;48.800;9.216;2022-08-21T04:53:40;17.70;78.70
610;DHT22;292;48.800;9.216;2022-08-21T04:56:11;17.70;78.70
610;DHT22;292;48.800;9.216;2022-08-21T04:58:39;17.70;78.60
610;DHT22;292;48.800;9.216;2022-08-21T05:01:10;17.70;78.60
610;DHT22;292;48.800;9.216;2022-08-21T05:03:40;17.70;78.70
610;DHT22;292;48.800;9.216;2022-08-21T05:06:10;17.70;78.70
610;DHT22;292;48.800;9.216;2022-08-21T05:08:39;17.70;78.70
610;DHT22;292;48.800;9.216;2022-08-21T05:11:06;17.60;79.00
610;DHT22;292;48.800;9.216;2022-08-21T05:13:33;17.60;79.00
610;DHT22;292;48.800;9.216;2022-08-21T05:16:01;17.60;79.10
610;DHT22;292;48.800;9.216;2022-08-21T05:18:29;17.60;79.40
610;DHT22;292;48.800;9.216;2022-08-21T05:20:57;17.60;79.40
610;DHT22;292;48.800;9.216;2022-08-21T05:23:24;17.60;79.60
610;DHT22;292;48.800;9.216;2022-08-21T05:25:52;17.60;79.60
610;DHT22;292;48.800;9.216;2022-08-21T05:28:20;17.60;79.60
610;DHT22;292;48.800;9.216;2022-08-21T05:30:48;17.60;79.70
610;DHT22;292;48.800;9.216;2022-08-21T05:33:15;17.60;79.70
610;DHT22;292;48.800;9.216;2022-08-21T05:35:42;17.60;79.70
610;DHT22;292;48.800;9.216;2022-08-21T05:38:11;17.60;79.70
610;DHT22;292;48.800;9.216;2022-08-21T05:40:38;17.70;79.70
610;DHT22;292;48.800;9.216;2022-08-21T05:43:05;17.70;79.70
610;DHT22;292;48.800;9.216;2022-08-21T05:45:33;17.70;79.40
610;DHT22;292;48.800;9.216;2022-08-21T05:48:05;17.70;79.40
610;DHT22;292;48.800;9.216;2022-08-21T05:50:33;17.80;79.40
610;DHT22;292;48.800;9.216;2022-08-21T05:53:01;17.80;79.10
610;DHT22;292;48.800;9.216;2022-08-21T05:55:29;17.80;79.10
610;DHT22;292;48.800;9.216;2022-08-21T05:57:56;17.90;79.00
610;DHT22;292;48.800;9.216;2022-08-21T06:00:24;17.90;78.80
610;DHT22;292;48.800;9.216;2022-08-21T06:02:51;18.00;78.70
610;DHT22;292;48.800;9.216;2022-08-21T06:05:18;18.00;78.70
610;DHT22;292;48.800;9.216;2022-08-21T06:07:45;18.00;78.60
610;DHT22;292;48.800;9.216;2022-08-21T06:10:12;18.10;78.60
610;DHT22;292;48.800;9.216;2022-08-21T06:12:40;18.20;78.60
610;DHT22;292;48.800;9.216;2022-08-21T06:15:08;18.20;78.10
610;DHT22;292;48.800;9.216;2022-08-21T06:17:36;18.20;77.80
610;DHT22;292;48.800;9.216;2022-08-21T06:20:04;18.30;77.50
610;DHT22;292;48.800;9.216;2022-08-21T06:22:31;18.30;77.30
610;DHT22;292;48.800;9.216;2022-08-21T06:24:58;18.40;76.80
610;DHT22;292;48.800;9.216;2022-08-21T06:27:25;18.40;76.80
610;DHT22;292;48.800;9.216;2022-08-21T06:29:54;18.50;76.80
610;DHT22;292;48.800;9.216;2022-08-21T06:32:22;18.60;76.70
610;DHT22;292;48.800;9.216;2022-08-21T06:34:49;18.70;76.20
610;DHT22;292;48.800;9.216;2022-08-21T06:37:17;18.80;76.00
610;DHT22;292;48.800;9.216;2022-08-21T06:39:44;18.90;75.40
610;DHT22;292;48.800;9.216;2022-08-21T06:42:13;18.90;75.10
610;DHT22;292;48.800;9.216;2022-08-21T06:44:40;19.00;74.70
610;DHT22;292;48.800;9.216;2022-08-21T06:47:09;19.00;74.40
610;DHT22;292;48.800;9.216;2022-08-21T06:49:36;19.10;74.10
610;DHT22;292;48.800;9.216;2022-08-21T06:52:03;19.20;73.80
610;DHT22;292;48.800;9.216;2022-08-21T06:54:34;19.20;73.70
610;DHT22;292;48.800;9.216;2022-08-21T06:57:01;19.30;73.40
610;DHT22;292;48.800;9.216;2022-08-21T06:59:29;19.40;72.90
610;DHT22;292;48.800;9.216;2022-08-21T07:01:56;19.40;72.80
610;DHT22;292;48.800;9.216;2022-08-21T07:04:25;19.50;72.40
610;DHT22;292;48.800;9.216;2022-08-21T07:06:52;19.60;72.10
610;DHT22;292;48.800;9.216;2022-08-21T07:09:19;19.60;71.90
610;DHT22;292;48.800;9.216;2022-08-21T07:11:49;19.70;71.80
610;DHT22;292;48.800;9.216;2022-08-21T07:14:17;19.70;71.80
610;DHT22;292;48.800;9.216;2022-08-21T07:16:45;19.80;71.80
610;DHT22;292;48.800;9.216;2022-08-21T07:19:12;19.80;71.60
610;DHT22;292;48.800;9.216;2022-08-21T07:21:40;19.90;71.50
610;DHT22;292;48.800;9.216;2022-08-21T07:24:07;20.00;71.20
610;DHT22;292;48.800;9.216;2022-08-21T07:26:35;20.10;70.80
610;DHT22;292;48.800;9.216;2022-08-21T07:29:03;20.10;70.60
610;DHT22;292;48.800;9.216;2022-08-21T07:31:30;20.20;70.20
610;DHT22;292;48.800;9.216;2022-08-21T07:33:58;20.30;69.80
610;DHT22;292;48.800;9.216;2022-08-21T07:36:25;20.40;69.30
610;DHT22;292;48.800;9.216;2022-08-21T07:38:53;20.40;68.90
610;DHT22;292;48.800;9.216;2022-08-21T07:41:22;20.50;68.50
610;DHT22;292;48.800;9.216;2022-08-21T07:43:50;20.60;67.90
610;DHT22;292;48.800;9.216;2022-08-21T07:46:17;20.70;67.20
610;DHT22;292;48.800;9.216;2022-08-21T07:48:44;20.70;66.70
610;DHT22;292;48.800;9.216;2022-08-21T07:51:14;20.80;66.40
610;DHT22;292;48.800;9.216;2022-08-21T07:53:41;20.90;65.90
610;DHT22;292;48.800;9.216;2022-08-21T07:56:10;20.90;65.70
610;DHT22;292;48.800;9.216;2022-08-21T07:58:37;21.00;65.30
610;DHT22;292;48.800;9.216;2022-08-21T08:01:05;21.00;65.00
610;DHT22;292;48.800;9.216;2022-08-21T08:03:32;21.10;64.60
610;DHT22;292;48.800;9.216;2022-08-21T08:05:59;21.20;64.30
610;DHT22;292;48.800;9.216;2022-08-21T08:08:26;21.30;64.10
610;DHT22;292;48.800;9.216;2022-08-21T08:10:55;21.40;63.70
610;DHT22;292;48.800;9.216;2022-08-21T08:13:24;21.50;63.30
610;DHT22;292;48.800;9.216;2022-08-21T08:15:51;21.70;62.70
610;DHT22;292;48.800;9.216;2022-08-21T08:18:19;21.80;62.40
610;DHT22;292;48.800;9.216;2022-08-21T08:20:48;22.00;62.00
610;DHT22;292;48.800;9.216;2022-08-21T08:23:15;22.10;61.40
610;DHT22;292;48.800;9.216;2022-08-21T08:25:42;22.20;61.00
610;DHT22;292;48.800;9.216;2022-08-21T08:28:10;22.40;60.50
610;DHT22;292;48.800;9.216;2022-08-21T08:30:38;22.50;60.00
610;DHT22;292;48.800;9.216;2022-08-21T08:33:05;22.60;59.40
610;DHT22;292;48.800;9.216;2022-08-21T08:35:33;22.70;59.00
610;DHT22;292;48.800;9.216;2022-08-21T08:38:00;22.80;58.60
610;DHT22;292;48.800;9.216;2022-08-21T08:40:32;22.80;58.20
610;DHT22;292;48.800;9.216;2022-08-21T08:43:02;22.90;57.70
610;DHT22;292;48.800;9.216;2022-08-21T08:45:33;23.00;57.30
610;DHT22;292;48.800;9.216;2022-08-21T08:48:05;23.10;57.00
610;DHT22;292;48.800;9.216;2022-08-21T08:50:39;23.20;56.40
610;DHT22;292;48.800;9.216;2022-08-21T08:53:11;23.30;56.10
610;DHT22;292;48.800;9.216;2022-08-21T08:55:41;23.40;55.80
610;DHT22;292;48.800;9.216;2022-08-21T08:58:11;23.40;55.20
610;DHT22;292;48.800;9.216;2022-08-21T09:00:41;23.50;55.00
610;DHT22;292;48.800;9.216;2022-08-21T09:03:10;23.60;54.90
610;DHT22;292;48.800;9.216;2022-08-21T09:05:43;23.70;54.60
610;DHT22;292;48.800;9.216;2022-08-21T09:08:24;23.70;54.10
610;DHT22;292;48.800;9.216;2022-08-21T09:11:01;23.80;53.70
610;DHT22;292;48.800;9.216;2022-08-21T09:13:38;23.90;53.30
610;DHT22;292;48.800;9.216;2022-08-21T09:16:13;24.00;52.90
610;DHT22;292;48.800;9.216;2022-08-21T09:18:52;24.10;52.50
610;DHT22;292;48.800;9.216;2022-08-21T09:21:24;24.10;52.10
610;DHT22;292;48.800;9.216;2022-08-21T09:23:59;24.20;51.70
610;DHT22;292;48.800;9.216;2022-08-21T09:26:29;24.30;51.20
610;DHT22;292;48.800;9.216;2022-08-21T09:28:59;24.30;51.20
610;DHT22;292;48.800;9.216;2022-08-21T09:31:30;24.40;51.00
610;DHT22;292;48.800;9.216;2022-08-21T09:34:01;24.50;51.00
610;DHT22;292;48.800;9.216;2022-08-21T09:36:34;24.50;50.50
610;DHT22;292;48.800;9.216;2022-08-21T09:39:03;24.60;50.00
610;DHT22;292;48.800;9.216;2022-08-21T09:41:33;24.70;49.40
610;DHT22;292;48.800;9.216;2022-08-21T09:44:01;24.80;48.80
610;DHT22;292;48.800;9.216;2022-08-21T09:46:29;24.90;48.40
610;DHT22;292;48.800;9.216;2022-08-21T09:48:58;25.00;47.80
610;DHT22;292;48.800;9.216;2022-08-21T09:51:31;25.10;47.20
610;DHT22;292;48.800;9.216;2022-08-21T09:54:14;25.20;47.00
610;DHT22;292;48.800;9.216;2022-08-21T09:56:55;25.30;46.60
610;DHT22;292;48.800;9.216;2022-08-21T09:59:39;25.30;46.40
610;DHT22;292;48.800;9.216;2022-08-21T10:02:24;25.40;46.10
610;DHT22;292;48.800;9.216;2022-08-21T10:04:53;25.50;45.60
610;DHT22;292;48.800;9.216;2022-08-21T10:07:23;25.50;45.60
610;DHT22;292;48.800;9.216;2022-08-21T10:10:00;25.60;46.00
610;DHT22;292;48.800;9.216;2022-08-21T10:12:35;25.60;45.80
610;DHT22;292;48.800;9.216;2022-08-21T10:15:13;25.70;45.40
610;DHT22;292;48.800;9.216;2022-08-21T10:17:51;25.70;45.20
610;DHT22;292;48.800;9.216;2022-08-21T10:20:24;25.80;44.80
610;DHT22;292;48.800;9.216;2022-08-21T10:23:03;25.80;44.60
610;DHT22;292;48.800;9.216;2022-08-21T10:25:40;25.90;44.20
610;DHT22;292;48.800;9.216;2022-08-21T10:28:15;25.90;44.10
610;DHT22;292;48.800;9.216;2022-08-21T10:30:55;26.00;44.00
610;DHT22;292;48.800;9.216;2022-08-21T10:33:35;26.10;43.80
610;DHT22;292;48.800;9.216;2022-08-21T10:36:10;26.20;43.60
610;DHT22;292;48.800;9.216;2022-08-21T10:38:59;26.30;43.40
610;DHT22;292;48.800;9.216;2022-08-21T10:41:52;26.30;43.20
610;DHT22;292;48.800;9.216;2022-08-21T10:44:32;26.40;43.30
610;DHT22;292;48.800;9.216;2022-08-21T10:47:07;26.50;43.30
610;DHT22;292;48.800;9.216;2022-08-21T10:49:39;26.50;42.90
610;DHT22;292;48.800;9.216;2022-08-21T10:52:32;26.60;42.80
610;DHT22;292;48.800;9.216;2022-08-21T10:55:19;26.60;42.40
610;DHT22;292;48.800;9.216;2022-08-21T10:57:51;26.70;42.20
610;DHT22;292;48.800;9.216;2022-08-21T11:00:20;26.70;42.20
610;DHT22;292;48.800;9.216;2022-08-21T11:02:52;26.80;42.00
610;DHT22;292;48.800;9.216;2022-08-21T11:05:27;26.90;41.80
610;DHT22;292;48.800;9.216;2022-08-21T11:08:06;27.00;41.40
610;DHT22;292;48.800;9.216;2022-08-21T11:10:40;27.10;40.80
610;DHT22;292;48.800;9.216;2022-08-21T11:13:14;27.20;40.60
610;DHT22;292;48.800;9.216;2022-08-21T11:15:48;27.30;40.20
610;DHT22;292;48.800;9.216;2022-08-21T11:18:24;27.30;39.70
610;DHT22;292;48.800;9.216;2022-08-21T11:21:01;27.40;39.40
610;DHT22;292;48.800;9.216;2022-08-21T11:23:38;27.40;39.40
610;DHT22;292;48.800;9.216;2022-08-21T11:26:12;27.40;39.60
610;DHT22;292;48.800;9.216;2022-08-21T11:28:46;27.40;39.40
610;DHT22;292;48.800;9.216;2022-08-21T11:31:25;27.50;39.30
610;DHT22;292;48.800;9.216;2022-08-21T11:34:06;27.50;39.00
610;DHT22;292;48.800;9.216;2022-08-21T11:36:45;27.60;38.80
610;DHT22;292;48.800;9.216;2022-08-21T11:39:26;27.70;38.50
610;DHT22;292;48.800;9.216;2022-08-21T11:42:04;27.80;38.20
610;DHT22;292;48.800;9.216;2022-08-21T11:44:54;27.80;38.10
610;DHT22;292;48.800;9.216;2022-08-21T11:47:30;27.90;37.80
610;DHT22;292;48.800;9.216;2022-08-21T11:50:13;28.00;37.70
610;DHT22;292;48.800;9.216;2022-08-21T11:52:43;28.10;37.60
610;DHT22;292;48.800;9.216;2022-08-21T11:55:16;28.20;37.60
610;DHT22;292;48.800;9.216;2022-08-21T11:57:52;28.20;37.30
610;DHT22;292;48.800;9.216;2022-08-21T12:00:26;28.30;37.20
610;DHT22;292;48.800;9.216;2022-08-21T12:02:58;28.30;37.00
610;DHT22;292;48.800;9.216;2022-08-21T12:05:31;28.40;36.90
610;DHT22;292;48.800;9.216;2022-08-21T12:08:04;28.50;36.80
610;DHT22;292;48.800;9.216;2022-08-21T12:10:39;28.60;36.40
610;DHT22;292;48.800;9.216;2022-08-21T12:13:11;28.70;36.00
610;DHT22;292;48.800;9.216;2022-08-21T12:15:40;28.80;35.70
610;DHT22;292;48.800;9.216;2022-08-21T12:18:22;28.90;35.60
610;DHT22;292;48.800;9.216;2022-08-21T12:21:02;29.00;35.20
610;DHT22;292;48.800;9.216;2022-08-21T12:23:33;29.00;35.20
610;DHT22;292;48.800;9.216;2022-08-21T12:26:24;29.00;35.20
610;DHT22;292;48.800;9.216;2022-08-21T12:29:16;29.00;34.50
610;DHT22;292;48.800;9.216;2022-08-21T12:31:51;29.10;34.60
610;DHT22;292;48.800;9.216;2022-08-21T12:34:20;29.10;34.60
610;DHT22;292;48.800;9.216;2022-08-21T12:36:53;29.10;34.50
610;DHT22;292;48.800;9.216;2022-08-21T12:39:24;29.10;34.50
610;DHT22;292;48.800;9.216;2022-08-21T12:41:59;29.20;34.50
610;DHT22;292;48.800;9.216;2022-08-21T12:44:35;29.20;34.50
610;DHT22;292;48.800;9.216;2022-08-21T12:47:16;29.20;34.40
610;DHT22;292;48.800;9.216;2022-08-21T12:49:52;29.30;34.40
610;DHT22;292;48.800;9.216;2022-08-21T12:52:24;29.40;34.10
610;DHT22;292;48.800;9.216;2022-08-21T12:54:51;29.40;33.80
610;DHT22;292;48.800;9.216;2022-08-21T12:57:24;29.50;33.60
610;DHT22;292;48.800;9.216;2022-08-21T12:59:57;29.50;33.30
610;DHT22;292;48.800;9.216;2022-08-21T13:02:31;29.60;33.30
610;DHT22;292;48.800;9.216;2022-08-21T13:05:07;29.60;33.00
610;DHT22;292;48.800;9.216;2022-08-21T13:07:46;29.60;33.00
610;DHT22;292;48.800;9.216;2022-08-21T13:10:19;29.60;32.90
610;DHT22;292;48.800;9.216;2022-08-21T13:12:48;29.70;33.00
610;DHT22;292;48.800;9.216;2022-08-21T13:15:26;29.70;33.00
610;DHT22;292;48.800;9.216;2022-08-21T13:17:54;29.80;32.50
610;DHT22;292;48.800;9.216;2022-08-21T13:20:30;29.90;32.40
610;DHT22;292;48.800;9.216;2022-08-21T13:22:59;30.00;32.00
610;DHT22;292;48.800;9.216;2022-08-21T13:25:29;30.00;31.70
610;DHT22;292;48.800;9.216;2022-08-21T13:28:00;30.10;31.70
610;DHT22;292;48.800;9.216;2022-08-21T13:30:31;30.10;31.70
610;DHT22;292;48.800;9.216;2022-08-21T13:33:01;30.20;31.40
610;DHT22;292;48.800;9.216;2022-08-21T13:35:34;30.20;31.70
610;DHT22;292;48.800;9.216;2022-08-21T13:38:04;30.30;31.70
610;DHT22;292;48.800;9.216;2022-08-21T13:40:40;30.30;31.60
610;DHT22;292;48.800;9.216;2022-08-21T13:43:11;30.40;31.30
610;DHT22;292;48.800;9.216;2022-08-21T13:45:44;30.40;31.20
610;DHT22;292;48.800;9.216;2022-08-21T13:48:11;30.50;31.00
610;DHT22;292;48.800;9.216;2022-08-21T13:50:43;30.60;30.80
610;DHT22;292;48.800;9.216;2022-08-21T13:53:22;30.70;30.60
610;DHT22;292;48.800;9.216;2022-08-21T13:55:50;30.70;30.40
610;DHT22;292;48.800;9.216;2022-08-21T13:58:29;30.80;30.50
610;DHT22;292;48.800;9.216;2022-08-21T14:01:02;30.80;30.50
610;DHT22;292;48.800;9.216;2022-08-21T14:03:36;30.90;30.40
610;DHT22;292;48.800;9.216;2022-08-21T14:06:12;31.00;30.10
610;DHT22;292;48.800;9.216;2022-08-21T14:08:48;31.00;29.90
610;DHT22;292;48.800;9.216;2022-08-21T14:11:21;31.10;29.90
610;DHT22;292;48.800;9.216;2022-08-21T14:13:55;31.10;29.70
610;DHT22;292;48.800;9.216;2022-08-21T14:16:42;31.20;29.50
610;DHT22;292;48.800;9.216;2022-08-21T14:19:19;31.20;29.30
610;DHT22;292;48.800;9.216;2022-08-21T14:21:47;31.30;29.30
610;DHT22;292;48.800;9.216;2022-08-21T14:24:28;31.30;29.30
610;DHT22;292;48.800;9.216;2022-08-21T14:26:57;31.30;29.10
610;DHT22;292;48.800;9.216;2022-08-21T14:29:36;31.40;29.10
610;DHT22;292;48.800;9.216;2022-08-21T14:32:14;31.40;29.00
610;DHT22;292;48.800;9.216;2022-08-21T14:34:42;31.40;29.00
610;DHT22;292;48.800;9.216;2022-08-21T14:37:10;31.40;29.00
610;DHT22;292;48.800;9.216;2022-08-21T14:39:40;31.40;28.80
610;DHT22;292;48.800;9.216;2022-08-21T14:42:12;31.50;28.70
610;DHT22;292;48.800;9.216;2022-08-21T14:44:40;31.50;28.40
610;DHT22;292;48.800;9.216;2022-08-21T14:47:10;31.50;28.40
610;DHT22;292;48.800;9.216;2022-08-21T14:49:39;31.50;28.30
610;DHT22;292;48.800;9.216;2022-08-21T14:52:08;31.50;28.40
610;DHT22;292;48.800;9.216;2022-08-21T14:54:37;31.40;28.50
610;DHT22;292;48.800;9.216;2022-08-21T14:57:08;31.40;28.60
610;DHT22;292;48.800;9.216;2022-08-21T14:59:36;31.40;28.70
610;DHT22;292;48.800;9.216;2022-08-21T15:02:05;31.40;28.60
610;DHT22;292;48.800;9.216;2022-08-21T15:04:34;31.40;28.60
610;DHT22;292;48.800;9.216;2022-08-21T15:07:04;31.40;28.50
610;DHT22;292;48.800;9.216;2022-08-21T15:09:35;31.50;28.40
610;DHT22;292;48.800;9.216;2022-08-21T15:12:03;31.50;28.50
610;DHT22;292;48.800;9.216;2022-08-21T15:14:34;31.50;28.30
610;DHT22;292;48.800;9.216;2022-08-21T15:17:03;31.60;28.20
610;DHT22;292;48.800;9.216;2022-08-21T15:19:33;31.60;28.30
610;DHT22;292;48.800;9.216;2022-08-21T15:22:08;31.70;28.20
610;DHT22;292;48.800;9.216;2022-08-21T15:24:36;31.70;28.00
610;DHT22;292;48.800;9.216;2022-08-21T15:27:06;31.70;28.10
610;DHT22;292;48.800;9.216;2022-08-21T15:29:36;31.70;28.10
610;DHT22;292;48.800;9.216;2022-08-21T15:32:18;31.70;28.10
610;DHT22;292;48.800;9.216;2022-08-21T15:34:50;31.70;28.00
610;DHT22;292;48.800;9.216;2022-08-21T15:37:19;31.70;28.00
610;DHT22;292;48.800;9.216;2022-08-21T15:39:46;31.70;27.90
610;DHT22;292;48.800;9.216;2022-08-21T15:42:13;31.70;27.70
610;DHT22;292;48.800;9.216;2022-08-21T15:44:41;31.70;27.50
610;DHT22;292;48.800;9.216;2022-08-21T15:47:13;31.70;27.30
610;DHT22;292;48.800;9.216;2022-08-21T15:49:57;31.70;27.40
610;DHT22;292;48.800;9.216;2022-08-21T15:52:29;31.60;27.40
610;DHT22;292;48.800;9.216;2022-08-21T15:54:59;31.50;27.60
610;DHT22;292;48.800;9.216;2022-08-21T15:57:28;31.40;27.60
610;DHT22;292;48.800;9.216;2022-08-21T16:00:20;31.40;27.60
610;DHT22;292;48.800;9.216;2022-08-21T16:02:56;31.30;27.60
610;DHT22;292;48.800;9.216;2022-08-21T16:05:28;31.30;27.40
610;DHT22;292;48.800;9.216;2022-08-21T16:07:59;31.30;27.30
610;DHT22;292;48.800;9.216;2022-08-21T16:10:26;31.30;27.30
610;DHT22;292;48.800;9.216;2022-08-21T16:12:55;31.20;27.40
610;DHT22;292;48.800;9.216;2022-08-21T16:15:28;31.20;27.50
610;DHT22;292;48.800;9.216;2022-08-21T16:18:11;31.10;27.50
610;DHT22;292;48.800;9.216;2022-08-21T16:20:40;31.00;27.60
610;DHT22;292;48.800;9.216;2022-08-21T16:23:11;31.00;27.40
610;DHT22;292;48.800;9.216;2022-08-21T16:25:40;31.00;27.40
610;DHT22;292;48.800;9.216;2022-08-21T16:28:09;30.90;27.60
610;DHT22;292;48.800;9.216;2022-08-21T16:30:37;30.80;28.50
610;DHT22;292;48.800;9.216;2022-08-21T16:33:05;30.80;29.20
610;DHT22;292;48.800;9.216;2022-08-21T16:35:34;30.70;29.20
610;DHT22;292;48.800;9.216;2022-08-21T16:38:03;30.70;28.50
610;DHT22;292;48.800;9.216;2022-08-21T16:40:33;30.70;28.40
610;DHT22;292;48.800;9.216;2022-08-21T16:43:02;30.60;28.50
610;DHT22;292;48.800;9.216;2022-08-21T16:45:29;30.50;28.60
610;DHT22;292;48.800;9.216;2022-08-21T16:47:56;30.50;28.70
610;DHT22;292;48.800;9.216;2022-08-21T16:50:23;30.40;28.40
610;DHT22;292;48.800;9.216;2022-08-21T16:52:51;30.30;28.30
610;DHT22;292;48.800;9.216;2022-08-21T16:55:19;30.30;28.40
610;DHT22;292;48.800;9.216;2022-08-21T16:57:47;30.20;28.80